Flight Track Log - Related Links

Times and Time Zones

All times are in EDT time to prevent confusion due to time zone crossing. See the SKW7374 flight status page for this flight to view local times or setup timezone preferences in your user account.

Time Position Orientation Groundspeed Altitude Reporting Facility
EDT Latitude Longitude Course Direction KTS MPH feet Rate Location/Type
Sun 05:02:15 PM 46.4792 -94.0003 50° Northeast 226 260 6,600  Level Minneapolis Center
Sun 05:03:17 PM 46.4853 -93.8692 86° East 271 312 9,200 2,274 Climbing Minneapolis Center
Sun 05:04:19 PM 46.4778 -93.7475 95° East 306 352 11,300 1,790 Climbing Minneapolis Center
Sun 05:05:21 PM 46.4325 -93.6475 123° Southeast 316 364 12,900 774 Climbing Minneapolis Center
Sun 05:06:00 PM 45.9786 -93.8468 155° Southeast  Level FlightAware Approximate
Sun 05:06:23 PM 46.3522 -93.6497 181° South 296 341 12,900  Level Minneapolis Center
Sun 05:07:25 PM 46.2747 -93.6561 183° South 283 326 13,000 48 Climbing Minneapolis Center
Sun 05:08:27 PM 46.1906 -93.6528 178° South 281 323 13,000  Level Minneapolis Center
Sun 05:09:30 PM 46.1072 -93.6433 176° South 294 338 13,000 -336 Level Minneapolis Center
Sun 05:10:32 PM 46.0264 -93.6328 175° South 294 338 12,300 -919 Descending Minneapolis Center
Sun 05:11:34 PM 45.9317 -93.6236 176° South 286 329 11,100 -629 Descending Minneapolis Center
Sun 05:12:36 PM 45.8503 -93.6164 176° South 292 336 11,000 -48 Descending Minneapolis Center
Sun 05:13:38 PM 45.7664 -93.6061 175° South 301 346 11,000  Level Minneapolis Center
Sun 05:14:40 PM 45.6808 -93.5983 176° South 310 357 11,000  Level Minneapolis Center
Sun 05:15:42 PM 45.5931 -93.5889 176° South 315 362 11,000 -97 Level Minneapolis Center
Sun 05:16:44 PM 45.4936 -93.5603 169° South 302 348 10,800 -774 Descending Minneapolis Center
Sun 05:17:46 PM 45.4203 -93.5211 159° South 282 325 9,400 -1,403 Descending Minneapolis Center
Sun 05:18:48 PM 45.3425 -93.5153 177° South 279 321 7,900 -1,161 Descending Minneapolis Center
Sun 05:19:50 PM 45.2694 -93.5075 176° South 264 304 7,000 -435 Descending Minneapolis Center
Sun 05:20:52 PM 45.2061 -93.5142 184° South 233 268 7,000 -48 Level Minneapolis Center
Sun 05:21:54 PM 45.1442 -93.5250 187° South 227 261 6,900 -768 Descending Minneapolis Center
Sun 05:22:57 PM 45.0789 -93.5039 167° South 217 250 5,400 -1,104 Descending Minneapolis Center
Sun 05:23:59 PM 45.0356 -93.4533 140° Southeast 203 234 4,600 -871 Descending Minneapolis Center
Sun 05:25:01 PM 44.9933 -93.4044 141° Southeast 197 227 3,600 -968 Descending Minneapolis Center

Login

Don't have an account? Register now (free) for customized features, flight alerts, and more!